createdAt,value
2018-03-08T00:00:02.044Z,24.30
2018-03-08T00:02:29.740Z,24.20
2018-03-08T00:04:57.433Z,24.80
2018-03-08T00:07:25.070Z,26.03
2018-03-08T00:09:52.766Z,27.23
2018-03-08T00:12:20.406Z,21.90
2018-03-08T00:14:48.081Z,23.67
2018-03-08T00:17:15.904Z,24.40
2018-03-08T00:19:43.538Z,26.13
2018-03-08T00:22:11.226Z,26.20
2018-03-08T00:24:38.864Z,24.60
2018-03-08T00:27:06.552Z,25.30
2018-03-08T00:29:34.214Z,25.90
2018-03-08T00:32:01.892Z,25.50
2018-03-08T00:34:29.526Z,23.33
2018-03-08T00:36:58.125Z,25.30
2018-03-08T00:39:25.760Z,24.97
2018-03-08T00:41:53.484Z,23.63
2018-03-08T00:44:21.145Z,24.20
2018-03-08T00:46:48.837Z,25.60
2018-03-08T00:49:17.346Z,24.70
2018-03-08T00:51:45.033Z,24.73
2018-03-08T00:54:12.676Z,27.07
2018-03-08T00:56:40.352Z,25.70
2018-03-08T00:59:07.987Z,25.47
2018-03-08T01:01:36.369Z,24.80
2018-03-08T01:04:04.020Z,25.23
2018-03-08T01:06:31.703Z,25.40
2018-03-08T01:08:59.336Z,25.87
2018-03-08T01:11:27.015Z,27.20
2018-03-08T01:13:54.645Z,26.27
2018-03-08T01:16:22.332Z,25.87
2018-03-08T01:18:50.076Z,25.30
2018-03-08T01:21:17.710Z,25.10
2018-03-08T01:23:45.477Z,25.43
2018-03-08T01:26:13.173Z,25.40
2018-03-08T01:28:40.815Z,25.87
2018-03-08T01:31:08.640Z,26.30
2018-03-08T01:33:36.412Z,26.00
2018-03-08T01:36:04.080Z,25.50
2018-03-08T01:38:31.766Z,26.00
2018-03-08T01:40:59.408Z,26.00
2018-03-08T01:43:27.145Z,27.30
2018-03-08T01:45:54.796Z,25.30
2018-03-08T01:48:22.481Z,26.37
2018-03-08T01:50:50.258Z,27.60
2018-03-08T01:53:17.953Z,25.40
2018-03-08T01:55:45.716Z,25.53
2018-03-08T01:58:13.426Z,24.50
2018-03-08T02:00:41.052Z,22.83
2018-03-08T02:03:08.752Z,25.00
2018-03-08T02:05:36.393Z,25.33
2018-03-08T02:08:04.026Z,25.23
2018-03-08T02:10:31.702Z,25.87
2018-03-08T02:12:59.385Z,25.57
2018-03-08T02:15:27.043Z,26.00
2018-03-08T02:17:54.732Z,24.87
2018-03-08T02:20:22.415Z,26.43
2018-03-08T02:22:50.131Z,24.47
2018-03-08T02:25:17.808Z,24.70
2018-03-08T02:27:45.504Z,24.73
2018-03-08T02:30:13.190Z,26.00
2018-03-08T02:32:40.833Z,24.57
2018-03-08T02:35:08.582Z,24.80
2018-03-08T02:37:36.217Z,25.87
2018-03-08T02:40:03.956Z,25.03
2018-03-08T02:42:31.601Z,26.27
2018-03-08T02:44:59.243Z,24.80
2018-03-08T02:47:27.716Z,25.20
2018-03-08T02:49:55.424Z,26.43
2018-03-08T02:52:23.052Z,25.20
2018-03-08T02:54:50.728Z,27.13
2018-03-08T02:57:18.375Z,26.37
2018-03-08T02:59:47.045Z,24.07
2018-03-08T03:02:14.754Z,25.70
2018-03-08T03:04:42.438Z,27.07
2018-03-08T03:07:10.151Z,25.93
2018-03-08T03:09:37.833Z,25.90
2018-03-08T03:12:05.502Z,25.13
2018-03-08T03:14:33.178Z,26.67
2018-03-08T03:17:00.863Z,25.20
2018-03-08T03:19:28.507Z,27.37
2018-03-08T03:21:56.196Z,25.53
2018-03-08T03:24:23.825Z,25.77
2018-03-08T03:26:51.523Z,25.50
2018-03-08T03:29:19.171Z,25.60
2018-03-08T03:31:46.964Z,23.87
2018-03-08T03:34:14.653Z,25.10
2018-03-08T03:36:42.292Z,23.50
2018-03-08T03:39:09.970Z,25.60
2018-03-08T03:41:37.653Z,25.50
2018-03-08T03:44:05.353Z,23.67
2018-03-08T03:46:33.006Z,25.40
2018-03-08T03:49:00.683Z,25.10
2018-03-08T03:51:28.369Z,24.80
2018-03-08T03:53:56.052Z,27.20
2018-03-08T03:56:23.736Z,27.10
2018-03-08T03:58:51.491Z,25.03
2018-03-08T04:01:19.175Z,26.07
2018-03-08T04:03:46.992Z,26.03
2018-03-08T04:06:14.688Z,27.70
2018-03-08T04:08:42.360Z,27.70
2018-03-08T04:11:10.163Z,27.07
2018-03-08T04:13:37.810Z,26.30
2018-03-08T04:16:05.501Z,26.60
2018-03-08T04:18:33.145Z,26.03
2018-03-08T04:21:00.834Z,25.47
2018-03-08T04:23:28.469Z,28.00
2018-03-08T04:25:56.186Z,28.77
2018-03-08T04:28:23.830Z,26.80
2018-03-08T04:30:51.628Z,28.03
2018-03-08T04:33:24.366Z,28.27
2018-03-08T04:35:52.200Z,28.30
2018-03-08T04:38:19.878Z,28.90
2018-03-08T04:40:47.655Z,28.33
2018-03-08T04:43:15.338Z,28.80
2018-03-08T04:45:42.968Z,29.43
2018-03-08T04:48:10.811Z,26.90
2018-03-08T04:50:38.466Z,28.80
2018-03-08T04:53:06.151Z,26.73
2018-03-08T04:55:33.913Z,28.70
2018-03-08T04:58:01.604Z,29.83
2018-03-08T05:00:29.275Z,28.00
2018-03-08T05:02:56.968Z,26.80
2018-03-08T05:05:24.650Z,27.17
2018-03-08T05:07:52.344Z,29.13
2018-03-08T05:10:19.987Z,29.07
2018-03-08T05:12:47.750Z,28.63
2018-03-08T05:15:15.411Z,28.77
2018-03-08T05:17:43.106Z,27.80
2018-03-08T05:20:10.871Z,27.27
2018-03-08T05:22:38.590Z,27.27
2018-03-08T05:25:06.278Z,27.33
2018-03-08T05:27:33.998Z,30.43
2018-03-08T05:30:01.664Z,29.07
2018-03-08T05:32:29.359Z,28.97
2018-03-08T05:34:57.011Z,29.07
2018-03-08T05:37:24.712Z,27.80
2018-03-08T05:39:52.547Z,28.30
2018-03-08T05:42:20.200Z,26.93
2018-03-08T05:44:47.892Z,29.20
2018-03-08T05:47:15.528Z,28.93
2018-03-08T05:49:43.260Z,48.53
2018-03-08T05:52:10.908Z,34.43
2018-03-08T05:54:38.592Z,31.97
2018-03-08T05:57:06.239Z,28.30
2018-03-08T05:59:34.884Z,27.97
2018-03-08T06:02:02.656Z,28.53
2018-03-08T06:04:30.356Z,31.70
2018-03-08T06:06:58.059Z,29.90
2018-03-08T06:09:25.763Z,29.67
2018-03-08T06:11:53.468Z,29.00
2018-03-08T06:14:21.507Z,28.20
2018-03-08T06:16:49.478Z,28.57
2018-03-08T06:19:17.331Z,28.80
2018-03-08T06:21:45.220Z,26.47
2018-03-08T06:24:13.097Z,29.10
2018-03-08T06:26:41.040Z,28.57
2018-03-08T06:29:08.706Z,28.60
2018-03-08T06:31:36.417Z,26.90
2018-03-08T06:34:04.096Z,27.77
2018-03-08T06:36:31.866Z,27.53
2018-03-08T06:38:59.703Z,30.23
2018-03-08T06:41:27.435Z,30.13
2018-03-08T06:43:56.578Z,28.47
2018-03-08T06:46:24.422Z,27.67
2018-03-08T06:48:52.287Z,28.13
2018-03-08T06:51:20.087Z,29.20
2018-03-08T06:53:47.863Z,30.00
2018-03-08T06:56:15.593Z,28.33
2018-03-08T06:58:43.427Z,29.30
2018-03-08T07:01:11.123Z,28.37
2018-03-08T07:03:38.782Z,29.77
2018-03-08T07:06:06.626Z,30.20
2018-03-08T07:08:34.532Z,30.90
2018-03-08T07:11:02.378Z,30.23
2018-03-08T07:13:30.215Z,39.47
2018-03-08T07:15:58.090Z,30.30
2018-03-08T07:18:25.866Z,29.97
2018-03-08T07:20:53.698Z,29.90
2018-03-08T07:23:21.396Z,30.10
2018-03-08T07:25:49.079Z,31.57
2018-03-08T07:28:16.743Z,31.67
2018-03-08T07:30:44.502Z,29.27
2018-03-08T07:33:12.173Z,30.03
2018-03-08T07:35:39.981Z,29.80
2018-03-08T07:38:07.743Z,31.90
2018-03-08T07:40:35.570Z,29.47
2018-03-08T07:43:03.325Z,29.63
2018-03-08T07:45:31.161Z,31.70
2018-03-08T07:47:58.983Z,28.80
2018-03-08T07:50:26.695Z,32.67
2018-03-08T07:52:54.498Z,29.57
2018-03-08T07:55:22.250Z,30.83
2018-03-08T07:57:50.030Z,30.07
2018-03-08T08:00:17.789Z,31.90
2018-03-08T08:02:45.595Z,32.87
2018-03-08T08:05:25.033Z,35.50
2018-03-08T08:08:04.390Z,34.07
2018-03-08T08:10:32.238Z,33.47
2018-03-08T08:13:00.096Z,34.13
2018-03-08T08:15:27.844Z,33.03
2018-03-08T08:17:55.716Z,33.67
2018-03-08T08:20:23.499Z,32.00
2018-03-08T08:22:51.378Z,32.07
2018-03-08T08:25:19.191Z,33.90
2018-03-08T08:27:46.978Z,31.73
2018-03-08T08:30:14.755Z,34.80
2018-03-08T08:32:42.570Z,30.57
2018-03-08T08:35:10.314Z,33.90
2018-03-08T08:37:38.142Z,31.50
2018-03-08T08:40:05.951Z,28.87
2018-03-08T08:42:33.827Z,30.07
2018-03-08T08:45:01.646Z,30.53
2018-03-08T08:47:29.483Z,28.90
2018-03-08T08:49:57.237Z,29.67
2018-03-08T08:52:25.263Z,28.50
2018-03-08T08:54:53.047Z,28.77
2018-03-08T08:57:21.676Z,27.00
2018-03-08T08:59:49.542Z,26.60
2018-03-08T09:02:17.287Z,27.10
2018-03-08T09:04:45.142Z,25.40
2018-03-08T09:07:12.959Z,25.03
2018-03-08T09:09:40.775Z,23.07
2018-03-08T09:12:08.515Z,23.43
2018-03-08T09:14:36.585Z,22.70
2018-03-08T09:17:04.355Z,21.67
2018-03-08T09:19:32.227Z,20.97
2018-03-08T09:21:59.971Z,21.20
2018-03-08T09:24:27.790Z,20.83
2018-03-08T09:26:55.566Z,20.20
2018-03-08T09:29:23.395Z,19.80
2018-03-08T09:31:51.271Z,20.13
2018-03-08T09:34:19.150Z,18.27
2018-03-08T09:36:46.829Z,16.33
2018-03-08T09:39:14.576Z,16.90
2018-03-08T09:41:42.287Z,18.23
2018-03-08T09:44:10.032Z,17.67
2018-03-08T09:46:37.769Z,18.37
2018-03-08T09:49:05.456Z,17.10
2018-03-08T09:51:33.152Z,16.60
2018-03-08T09:54:00.858Z,15.23
2018-03-08T09:56:28.757Z,15.50
2018-03-08T09:58:56.445Z,16.23
2018-03-08T10:01:24.184Z,14.43
2018-03-08T10:03:51.868Z,14.83
2018-03-08T10:06:19.673Z,14.70
2018-03-08T10:08:47.422Z,13.33
2018-03-08T10:11:15.109Z,12.87
2018-03-08T10:13:42.879Z,13.30
2018-03-08T10:16:10.607Z,13.60
2018-03-08T10:18:38.354Z,12.70
2018-03-08T10:21:06.136Z,12.53
2018-03-08T10:23:33.858Z,12.37
2018-03-08T10:26:01.643Z,12.60
2018-03-08T10:28:29.309Z,13.57
2018-03-08T10:30:56.999Z,12.57
2018-03-08T10:33:24.758Z,11.97
2018-03-08T10:35:52.458Z,11.00
2018-03-08T10:38:20.371Z,14.13
2018-03-08T10:40:48.179Z,29.67
2018-03-08T10:43:15.896Z,45.73
2018-03-08T10:45:43.566Z,32.47
2018-03-08T10:48:11.290Z,59.93
2018-03-08T10:50:38.982Z,42.23
2018-03-08T10:53:06.829Z,18.20
2018-03-08T10:55:34.602Z,14.90
2018-03-08T10:58:02.378Z,15.77
2018-03-08T11:00:35.788Z,16.03
2018-03-08T11:03:06.981Z,15.67
2018-03-08T11:05:40.058Z,12.50
2018-03-08T11:08:07.881Z,14.13
2018-03-08T11:10:35.709Z,35.43
2018-03-08T11:13:03.444Z,13.93
2018-03-08T11:15:31.272Z,13.23
2018-03-08T11:17:59.209Z,16.97
2018-03-08T11:20:26.886Z,17.87
2018-03-08T11:22:54.569Z,17.30
2018-03-08T11:25:22.279Z,13.83
2018-03-08T11:27:49.990Z,15.57
2018-03-08T11:30:17.687Z,15.40
2018-03-08T11:32:45.356Z,13.93
2018-03-08T11:35:13.085Z,16.40
2018-03-08T11:37:40.915Z,16.70
2018-03-08T11:40:08.614Z,15.70
2018-03-08T11:42:36.442Z,16.37
2018-03-08T11:45:04.215Z,17.90
2018-03-08T11:47:31.891Z,16.57
2018-03-08T11:49:59.666Z,16.67
2018-03-08T11:52:27.386Z,17.00
2018-03-08T11:54:55.196Z,18.50
2018-03-08T11:57:22.990Z,19.43
2018-03-08T11:59:50.948Z,17.80
2018-03-08T12:02:18.779Z,16.97
2018-03-08T12:04:46.540Z,15.97
2018-03-08T12:07:14.343Z,17.63
2018-03-08T12:09:42.014Z,17.73
2018-03-08T12:12:09.850Z,18.50
2018-03-08T12:14:37.642Z,18.23
2018-03-08T12:17:05.432Z,18.80
2018-03-08T12:19:33.154Z,18.40
2018-03-08T12:22:00.999Z,18.70
2018-03-08T12:24:28.779Z,19.03
2018-03-08T12:26:56.563Z,20.37
2018-03-08T12:29:24.244Z,20.30
2018-03-08T12:31:52.119Z,20.00
2018-03-08T12:34:19.802Z,20.40
2018-03-08T12:36:47.530Z,25.30
2018-03-08T12:39:15.231Z,28.17
2018-03-08T12:41:43.021Z,24.43
2018-03-08T12:44:10.733Z,27.80
2018-03-08T12:46:38.386Z,20.50
2018-03-08T12:49:06.125Z,18.33
2018-03-08T12:51:33.892Z,18.30
2018-03-08T12:54:01.610Z,17.10
2018-03-08T12:56:29.411Z,15.23
2018-03-08T12:58:57.243Z,16.10
2018-03-08T13:01:24.889Z,16.40
2018-03-08T13:03:54.118Z,15.00
2018-03-08T13:06:22.007Z,15.80
2018-03-08T13:08:49.741Z,15.50
2018-03-08T13:11:17.438Z,14.90
2018-03-08T13:13:45.139Z,15.47
2018-03-08T13:16:12.978Z,14.77
2018-03-08T13:18:40.697Z,14.60
2018-03-08T13:21:08.364Z,15.73
2018-03-08T13:23:36.198Z,15.50
2018-03-08T13:26:03.967Z,16.40
2018-03-08T13:28:31.811Z,14.97
2018-03-08T13:30:59.475Z,14.03
2018-03-08T13:33:27.218Z,14.80
2018-03-08T13:35:55.047Z,14.90
2018-03-08T13:38:22.806Z,14.50
2018-03-08T13:40:50.669Z,13.10
2018-03-08T13:43:18.470Z,12.40
2018-03-08T13:45:46.309Z,11.27
2018-03-08T13:48:14.170Z,11.93
2018-03-08T13:50:41.962Z,12.90
2018-03-08T13:53:09.642Z,13.40
2018-03-08T13:55:37.354Z,22.47
2018-03-08T13:58:05.054Z,16.00
2018-03-08T14:00:32.714Z,11.80
2018-03-08T14:03:00.563Z,12.20
2018-03-08T14:05:28.302Z,18.37
2018-03-08T14:07:56.151Z,12.50
2018-03-08T14:10:23.883Z,12.07
2018-03-08T14:12:51.726Z,11.90
2018-03-08T14:15:19.478Z,12.70
2018-03-08T14:17:47.229Z,21.17
2018-03-08T14:20:15.086Z,23.43
2018-03-08T14:22:42.923Z,13.17
2018-03-08T14:25:10.743Z,13.40
2018-03-08T14:27:38.487Z,9.40
2018-03-08T14:30:06.350Z,8.77
2018-03-08T14:32:34.183Z,8.90
2018-03-08T14:35:01.887Z,8.50
2018-03-08T14:37:29.628Z,9.80
2018-03-08T14:39:57.344Z,9.97
2018-03-08T14:42:25.039Z,14.37
2018-03-08T14:44:52.724Z,12.00
2018-03-08T14:47:20.454Z,13.17
2018-03-08T14:49:48.283Z,14.50
2018-03-08T14:52:16.006Z,11.70
2018-03-08T14:54:43.874Z,9.60
2018-03-08T14:57:11.718Z,12.50
2018-03-08T14:59:39.480Z,28.07
2018-03-08T15:02:07.386Z,59.10
2018-03-08T15:04:35.053Z,71.10
2018-03-08T15:07:02.801Z,98.97
2018-03-08T15:09:30.497Z,116.17
2018-03-08T15:11:58.182Z,98.00
2018-03-08T15:14:25.888Z,74.07
2018-03-08T15:16:53.706Z,106.27
2018-03-08T15:19:21.454Z,30.97
2018-03-08T15:21:49.170Z,25.83
2018-03-08T15:24:16.894Z,10.57
2018-03-08T15:29:21.118Z,6.77
2018-03-08T15:31:48.778Z,6.43
2018-03-08T15:34:16.588Z,6.73
2018-03-08T15:36:44.313Z,6.33
2018-03-08T15:39:13.225Z,7.10
2018-03-08T15:41:41.008Z,6.67
2018-03-08T15:44:08.836Z,9.80
2018-03-08T15:46:36.591Z,6.70
2018-03-08T15:49:04.381Z,5.77
2018-03-08T15:51:32.190Z,5.40
2018-03-08T15:53:59.936Z,5.30
2018-03-08T15:56:27.631Z,4.80
2018-03-08T15:58:55.426Z,5.40
2018-03-08T16:01:23.237Z,4.80
2018-03-08T16:03:50.903Z,4.80
2018-03-08T16:06:25.382Z,5.17
2018-03-08T16:09:01.011Z,4.80
2018-03-08T16:11:28.804Z,4.57
2018-03-08T16:13:56.525Z,4.90
2018-03-08T16:16:24.247Z,5.47
2018-03-08T16:18:51.974Z,4.43
2018-03-08T16:21:19.687Z,4.87
2018-03-08T16:23:47.483Z,4.60
2018-03-08T16:26:15.305Z,4.20
2018-03-08T16:28:43.178Z,4.43
2018-03-08T16:31:10.911Z,4.10
2018-03-08T16:33:38.726Z,4.13
2018-03-08T16:36:06.491Z,4.57
2018-03-08T16:38:34.222Z,4.17
2018-03-08T16:41:01.935Z,4.00
2018-03-08T16:43:29.626Z,4.60
2018-03-08T16:45:57.374Z,4.00
2018-03-08T16:48:25.070Z,4.23
2018-03-08T16:50:52.734Z,4.30
2018-03-08T16:53:20.514Z,4.43
2018-03-08T16:55:48.238Z,4.70
2018-03-08T16:58:15.966Z,4.00
2018-03-08T17:00:43.632Z,4.30
2018-03-08T17:03:11.358Z,4.50
2018-03-08T17:05:39.911Z,4.13
2018-03-08T17:08:07.642Z,4.10
2018-03-08T17:10:35.378Z,3.70
2018-03-08T17:13:03.078Z,4.50
2018-03-08T17:15:30.799Z,4.63
2018-03-08T17:17:58.510Z,4.33
2018-03-08T17:20:26.294Z,4.53
2018-03-08T17:22:53.946Z,4.30
2018-03-08T17:25:21.697Z,3.90
2018-03-08T17:27:49.377Z,4.17
2018-03-08T17:30:17.139Z,4.50
2018-03-08T17:32:44.856Z,4.70
2018-03-08T17:35:12.558Z,5.03
2018-03-08T17:37:40.221Z,35.30
2018-03-08T17:40:07.928Z,102.50
2018-03-08T17:42:35.576Z,96.43
2018-03-08T17:45:03.267Z,59.77
2018-03-08T17:47:30.912Z,76.50
2018-03-08T17:49:58.757Z,14.00
2018-03-08T17:52:26.576Z,5.20
2018-03-08T17:54:54.325Z,5.30
2018-03-08T17:57:22.464Z,7.83
2018-03-08T17:59:50.478Z,9.13
2018-03-08T18:02:18.396Z,8.80
2018-03-08T18:04:46.643Z,6.80
2018-03-08T18:07:15.217Z,10.50
2018-03-08T18:09:43.402Z,5.20
2018-03-08T18:12:11.706Z,5.63
2018-03-08T18:14:40.014Z,5.67
2018-03-08T18:17:07.703Z,5.23
2018-03-08T18:19:35.397Z,4.83
2018-03-08T18:22:03.117Z,5.10
2018-03-08T18:24:30.771Z,5.73
2018-03-08T18:26:58.456Z,5.60
2018-03-08T18:29:26.104Z,5.90
2018-03-08T18:31:53.798Z,5.80
2018-03-08T18:34:21.516Z,5.17
2018-03-08T18:36:49.295Z,5.37
2018-03-08T18:39:16.973Z,5.33
2018-03-08T18:41:44.642Z,5.40
2018-03-08T18:44:12.403Z,5.80
2018-03-08T18:46:40.051Z,5.27
2018-03-08T18:49:07.813Z,5.80
2018-03-08T18:51:35.512Z,5.47
2018-03-08T18:54:03.228Z,5.83
2018-03-08T18:56:30.943Z,5.90
2018-03-08T18:58:58.631Z,5.70
2018-03-08T19:01:26.281Z,5.87
2018-03-08T19:03:53.985Z,5.53
2018-03-08T19:06:21.675Z,5.90
2018-03-08T19:08:49.399Z,5.83
2018-03-08T19:11:17.078Z,6.00
2018-03-08T19:13:44.777Z,6.00
2018-03-08T19:16:12.459Z,5.57
2018-03-08T19:18:40.192Z,5.80
2018-03-08T19:21:07.897Z,6.20
2018-03-08T19:23:35.589Z,5.53
2018-03-08T19:26:03.335Z,5.60
2018-03-08T19:28:31.055Z,5.90
2018-03-08T19:30:58.745Z,5.40
2018-03-08T19:33:26.402Z,6.10
2018-03-08T19:35:54.126Z,5.70
2018-03-08T19:38:21.855Z,5.83
2018-03-08T19:40:49.570Z,5.70
2018-03-08T19:43:17.270Z,5.77
2018-03-08T19:45:44.950Z,6.20
2018-03-08T19:48:12.616Z,6.10
2018-03-08T19:50:40.331Z,5.60
2018-03-08T19:53:08.114Z,6.10
2018-03-08T19:55:35.886Z,5.87
2018-03-08T19:58:03.537Z,5.70
2018-03-08T20:00:31.246Z,6.00
2018-03-08T20:02:58.943Z,5.63
2018-03-08T20:05:26.588Z,6.23
2018-03-08T20:07:54.264Z,6.50
2018-03-08T20:10:21.915Z,6.13
2018-03-08T20:12:49.595Z,6.40
2018-03-08T20:15:17.369Z,6.63
2018-03-08T20:17:45.077Z,6.90
2018-03-08T20:20:12.766Z,7.50
2018-03-08T20:22:40.477Z,7.53
2018-03-08T20:25:08.192Z,7.50
2018-03-08T20:27:35.868Z,6.57
2018-03-08T20:30:03.588Z,7.77
2018-03-08T20:32:31.315Z,6.70
2018-03-08T20:34:59.020Z,7.53
2018-03-08T20:37:26.708Z,6.73
2018-03-08T20:39:54.475Z,6.67
2018-03-08T20:42:22.127Z,4.70
2018-03-08T20:44:49.807Z,4.30
2018-03-08T20:47:17.523Z,3.13
2018-03-08T20:49:45.267Z,1.50
2018-03-08T20:52:13.050Z,1.10
2018-03-08T20:54:40.730Z,1.00
2018-03-08T20:57:08.371Z,1.00
2018-03-08T20:59:36.065Z,1.00
2018-03-08T21:02:03.730Z,0.90
2018-03-08T21:04:31.433Z,1.00
2018-03-08T21:06:59.297Z,1.30
2018-03-08T21:09:26.994Z,1.20
2018-03-08T21:11:54.702Z,1.20
2018-03-08T21:14:22.429Z,1.30
2018-03-08T21:16:50.105Z,1.10
2018-03-08T21:19:17.831Z,1.20
2018-03-08T21:21:45.450Z,1.33
2018-03-08T21:24:13.210Z,1.13
2018-03-08T21:26:41.106Z,1.17
2018-03-08T21:29:09.036Z,1.70
2018-03-08T21:31:36.720Z,4.00
2018-03-08T21:34:04.418Z,3.70
2018-03-08T21:36:32.122Z,2.80
2018-03-08T21:38:59.842Z,2.83
2018-03-08T21:41:27.543Z,2.30
2018-03-08T21:43:55.259Z,3.10
2018-03-08T21:46:23.031Z,2.10
2018-03-08T21:48:50.719Z,1.50
2018-03-08T21:51:18.429Z,1.60
2018-03-08T21:53:46.086Z,1.70
2018-03-08T21:56:13.831Z,1.83
2018-03-08T21:58:41.462Z,1.57
2018-03-08T22:01:09.166Z,1.70
2018-03-08T22:03:36.871Z,1.80
2018-03-08T22:06:04.589Z,2.00
2018-03-08T22:08:32.254Z,2.47
2018-03-08T22:10:59.951Z,2.87
2018-03-08T22:13:27.614Z,2.43
2018-03-08T22:15:55.426Z,2.70
2018-03-08T22:18:23.186Z,2.40
2018-03-08T22:20:50.883Z,2.40
2018-03-08T22:23:18.520Z,2.33
2018-03-08T22:25:46.242Z,2.07
2018-03-08T22:28:13.875Z,2.30
2018-03-08T22:30:41.562Z,2.50
2018-03-08T22:33:09.307Z,2.70
2018-03-08T22:35:36.976Z,2.50
2018-03-08T22:38:04.665Z,2.67
2018-03-08T22:40:32.398Z,2.30
2018-03-08T22:43:00.101Z,2.50
2018-03-08T22:45:27.828Z,2.70
2018-03-08T22:47:55.466Z,2.67
2018-03-08T22:50:23.258Z,2.97
2018-03-08T22:52:50.930Z,3.10
2018-03-08T22:55:18.603Z,3.73
2018-03-08T22:57:46.375Z,3.80
2018-03-08T23:00:14.074Z,4.20
2018-03-08T23:02:41.762Z,4.10
2018-03-08T23:05:09.404Z,4.40
2018-03-08T23:07:37.098Z,4.70
2018-03-08T23:10:04.775Z,5.50
2018-03-08T23:12:32.453Z,5.57
2018-03-08T23:15:00.092Z,5.20
2018-03-08T23:17:28.847Z,6.07
2018-03-08T23:19:56.514Z,6.10
2018-03-08T23:22:24.148Z,7.03
2018-03-08T23:24:51.826Z,5.90
2018-03-08T23:27:19.508Z,7.30
2018-03-08T23:29:47.189Z,7.37
2018-03-08T23:32:14.876Z,7.00
2018-03-08T23:34:42.545Z,7.83
2018-03-08T23:37:10.178Z,7.20
2018-03-08T23:39:37.855Z,8.10
2018-03-08T23:42:05.516Z,7.93
2018-03-08T23:44:33.195Z,8.67
2018-03-08T23:47:00.881Z,8.70
2018-03-08T23:49:28.559Z,8.40
2018-03-08T23:51:56.252Z,9.40
2018-03-08T23:54:23.943Z,8.40
2018-03-08T23:56:51.639Z,8.80
2018-03-08T23:59:19.278Z,8.60
